sensor_id;sensor_type;location;lat;lon;timestamp;P1;durP1;ratioP1;P2;durP2;ratioP2
56724;SDS011;42608;52.776;6.968;2023-10-19T12:44:40;28.65;;;24.25;;
56724;SDS011;42608;52.776;6.968;2023-10-19T12:47:08;25.70;;;23.13;;
56724;SDS011;42608;52.776;6.968;2023-10-19T12:49:38;25.40;;;22.92;;
56724;SDS011;42608;52.776;6.968;2023-10-19T12:52:07;24.17;;;21.73;;
56724;SDS011;42608;52.776;6.968;2023-10-19T12:54:34;24.20;;;21.75;;
56724;SDS011;42608;52.776;6.968;2023-10-19T12:57:01;23.30;;;20.98;;
56724;SDS011;42608;52.776;6.968;2023-10-19T12:59:29;27.67;;;21.50;;
56724;SDS011;42608;52.776;6.968;2023-10-19T13:01:55;22.05;;;19.85;;
56724;SDS011;42608;52.776;6.968;2023-10-19T13:04:23;22.92;;;20.58;;
56724;SDS011;42608;52.776;6.968;2023-10-19T13:06:50;24.95;;;22.30;;
56724;SDS011;42608;52.776;6.968;2023-10-19T13:09:17;21.58;;;19.45;;
56724;SDS011;42608;52.776;6.968;2023-10-19T13:11:50;22.23;;;20.05;;
56724;SDS011;42608;52.776;6.968;2023-10-19T13:14:17;21.92;;;18.77;;
56724;SDS011;42608;52.776;6.968;2023-10-19T13:16:43;20.70;;;18.42;;
56724;SDS011;42608;52.776;6.968;2023-10-19T13:19:09;21.35;;;18.85;;
56724;SDS011;42608;52.776;6.968;2023-10-19T13:21:41;22.90;;;20.42;;
56724;SDS011;42608;52.776;6.968;2023-10-19T13:24:09;45.03;;;34.50;;
56724;SDS011;42608;52.776;6.968;2023-10-19T13:26:35;46.92;;;38.03;;
56724;SDS011;42608;52.776;6.968;2023-10-19T13:29:03;47.17;;;40.17;;
56724;SDS011;42608;52.776;6.968;2023-10-19T13:31:30;43.72;;;38.80;;
56724;SDS011;42608;52.776;6.968;2023-10-19T13:33:57;36.03;;;31.60;;
56724;SDS011;42608;52.776;6.968;2023-10-19T13:36:24;35.05;;;30.95;;
56724;SDS011;42608;52.776;6.968;2023-10-19T13:38:50;28.60;;;25.58;;
56724;SDS011;42608;52.776;6.968;2023-10-19T13:41:16;25.92;;;23.23;;
56724;SDS011;42608;52.776;6.968;2023-10-19T13:43:42;22.45;;;20.20;;
56724;SDS011;42608;52.776;6.968;2023-10-19T13:46:07;24.05;;;21.50;;
56724;SDS011;42608;52.776;6.968;2023-10-19T13:48:33;21.48;;;19.38;;
56724;SDS011;42608;52.776;6.968;2023-10-19T13:50:59;25.20;;;21.02;;
56724;SDS011;42608;52.776;6.968;2023-10-19T13:53:38;23.55;;;21.13;;
56724;SDS011;42608;52.776;6.968;2023-10-19T13:56:07;23.10;;;19.95;;
56724;SDS011;42608;52.776;6.968;2023-10-19T13:58:34;20.90;;;18.35;;
56724;SDS011;42608;52.776;6.968;2023-10-19T14:01:00;21.95;;;19.67;;
56724;SDS011;42608;52.776;6.968;2023-10-19T14:03:25;21.23;;;19.20;;
56724;SDS011;42608;52.776;6.968;2023-10-19T14:05:51;24.38;;;21.08;;
56724;SDS011;42608;52.776;6.968;2023-10-19T14:08:21;22.75;;;20.55;;
56724;SDS011;42608;52.776;6.968;2023-10-19T14:10:47;25.02;;;21.15;;
56724;SDS011;42608;52.776;6.968;2023-10-19T14:13:13;26.52;;;22.02;;
56724;SDS011;42608;52.776;6.968;2023-10-19T14:15:39;22.88;;;20.55;;
56724;SDS011;42608;52.776;6.968;2023-10-19T14:18:07;27.88;;;21.00;;
56724;SDS011;42608;52.776;6.968;2023-10-19T14:20:39;20.92;;;18.73;;
56724;SDS011;42608;52.776;6.968;2023-10-19T14:23:05;23.05;;;20.58;;
56724;SDS011;42608;52.776;6.968;2023-10-19T14:25:36;24.10;;;20.48;;
56724;SDS011;42608;52.776;6.968;2023-10-19T14:28:03;25.10;;;20.00;;
56724;SDS011;42608;52.776;6.968;2023-10-19T14:30:31;26.17;;;20.38;;
56724;SDS011;42608;52.776;6.968;2023-10-19T14:32:58;26.95;;;20.10;;
56724;SDS011;42608;52.776;6.968;2023-10-19T14:35:24;22.55;;;20.27;;
56724;SDS011;42608;52.776;6.968;2023-10-19T14:37:51;25.10;;;21.60;;
56724;SDS011;42608;52.776;6.968;2023-10-19T14:40:27;25.15;;;21.73;;
56724;SDS011;42608;52.776;6.968;2023-10-19T14:42:53;24.85;;;21.98;;
56724;SDS011;42608;52.776;6.968;2023-10-19T14:45:21;28.67;;;22.15;;
56724;SDS011;42608;52.776;6.968;2023-10-19T14:47:53;24.58;;;20.85;;
56724;SDS011;42608;52.776;6.968;2023-10-19T14:50:20;24.25;;;21.75;;
56724;SDS011;42608;52.776;6.968;2023-10-19T14:52:48;23.75;;;21.08;;
56724;SDS011;42608;52.776;6.968;2023-10-19T14:55:16;22.60;;;19.90;;
56724;SDS011;42608;52.776;6.968;2023-10-19T14:57:46;25.15;;;21.30;;
56724;SDS011;42608;52.776;6.968;2023-10-19T15:00:18;25.75;;;22.83;;
56724;SDS011;42608;52.776;6.968;2023-10-19T15:02:51;24.50;;;21.90;;
56724;SDS011;42608;52.776;6.968;2023-10-19T15:05:25;24.55;;;21.25;;
56724;SDS011;42608;52.776;6.968;2023-10-19T15:07:53;23.75;;;21.20;;
56724;SDS011;42608;52.776;6.968;2023-10-19T15:10:22;23.23;;;20.83;;
56724;SDS011;42608;52.776;6.968;2023-10-19T15:12:50;24.50;;;21.90;;
56724;SDS011;42608;52.776;6.968;2023-10-19T15:15:16;28.65;;;23.67;;
56724;SDS011;42608;52.776;6.968;2023-10-19T15:17:45;29.35;;;25.23;;
56724;SDS011;42608;52.776;6.968;2023-10-19T15:20:13;28.83;;;24.48;;
56724;SDS011;42608;52.776;6.968;2023-10-19T15:22:40;28.33;;;25.52;;
56724;SDS011;42608;52.776;6.968;2023-10-19T15:25:06;31.50;;;26.85;;
56724;SDS011;42608;52.776;6.968;2023-10-19T15:27:33;34.35;;;29.02;;
56724;SDS011;42608;52.776;6.968;2023-10-19T15:29:59;40.15;;;29.00;;
56724;SDS011;42608;52.776;6.968;2023-10-19T15:32:25;31.75;;;28.27;;
56724;SDS011;42608;52.776;6.968;2023-10-19T15:34:51;30.50;;;27.48;;
56724;SDS011;42608;52.776;6.968;2023-10-19T15:37:18;32.13;;;28.55;;
56724;SDS011;42608;52.776;6.968;2023-10-19T15:39:44;30.48;;;27.25;;
56724;SDS011;42608;52.776;6.968;2023-10-19T15:42:10;30.40;;;27.20;;
56724;SDS011;42608;52.776;6.968;2023-10-19T15:44:36;27.75;;;24.92;;
56724;SDS011;42608;52.776;6.968;2023-10-19T15:47:03;29.20;;;26.10;;
56724;SDS011;42608;52.776;6.968;2023-10-19T15:49:42;29.67;;;26.42;;
56724;SDS011;42608;52.776;6.968;2023-10-19T15:52:13;26.90;;;23.92;;
56724;SDS011;42608;52.776;6.968;2023-10-19T15:54:39;27.50;;;24.67;;
56724;SDS011;42608;52.776;6.968;2023-10-19T15:57:05;29.23;;;25.35;;
56724;SDS011;42608;52.776;6.968;2023-10-19T15:59:31;29.30;;;25.33;;
56724;SDS011;42608;52.776;6.968;2023-10-19T16:01:57;39.28;;;26.92;;
56724;SDS011;42608;52.776;6.968;2023-10-19T16:04:23;34.53;;;26.00;;
56724;SDS011;42608;52.776;6.968;2023-10-19T16:06:48;27.27;;;24.13;;
56724;SDS011;42608;52.776;6.968;2023-10-19T16:09:14;30.02;;;23.92;;
56724;SDS011;42608;52.776;6.968;2023-10-19T16:11:41;28.63;;;24.92;;
56724;SDS011;42608;52.776;6.968;2023-10-19T16:14:07;30.10;;;24.98;;
56724;SDS011;42608;52.776;6.968;2023-10-19T16:16:32;30.90;;;23.27;;
56724;SDS011;42608;52.776;6.968;2023-10-19T16:18:58;28.83;;;22.92;;
56724;SDS011;42608;52.776;6.968;2023-10-19T16:21:24;30.02;;;22.88;;
56724;SDS011;42608;52.776;6.968;2023-10-19T16:23:50;30.00;;;23.85;;
56724;SDS011;42608;52.776;6.968;2023-10-19T16:26:18;35.22;;;24.38;;
56724;SDS011;42608;52.776;6.968;2023-10-19T16:28:44;35.63;;;24.73;;
56724;SDS011;42608;52.776;6.968;2023-10-19T16:31:11;33.50;;;24.58;;
56724;SDS011;42608;52.776;6.968;2023-10-19T16:33:37;27.90;;;23.85;;
56724;SDS011;42608;52.776;6.968;2023-10-19T16:36:03;34.83;;;24.38;;
56724;SDS011;42608;52.776;6.968;2023-10-19T16:38:29;33.60;;;25.30;;
56724;SDS011;42608;52.776;6.968;2023-10-19T16:40:58;32.70;;;24.45;;
56724;SDS011;42608;52.776;6.968;2023-10-19T16:43:25;30.77;;;24.05;;
56724;SDS011;42608;52.776;6.968;2023-10-19T16:45:51;30.52;;;23.80;;
56724;SDS011;42608;52.776;6.968;2023-10-19T16:48:16;31.13;;;25.77;;
56724;SDS011;42608;52.776;6.968;2023-10-19T16:50:42;32.15;;;25.67;;
56724;SDS011;42608;52.776;6.968;2023-10-19T16:53:09;31.55;;;24.52;;
56724;SDS011;42608;52.776;6.968;2023-10-19T16:55:35;35.20;;;26.15;;
56724;SDS011;42608;52.776;6.968;2023-10-19T16:58:00;34.92;;;26.80;;
56724;SDS011;42608;52.776;6.968;2023-10-19T17:00:27;32.10;;;24.92;;
56724;SDS011;42608;52.776;6.968;2023-10-19T17:02:58;33.88;;;26.85;;
56724;SDS011;42608;52.776;6.968;2023-10-19T17:05:27;33.10;;;24.90;;
56724;SDS011;42608;52.776;6.968;2023-10-19T17:07:53;31.60;;;23.50;;
56724;SDS011;42608;52.776;6.968;2023-10-19T17:10:19;34.03;;;24.42;;
56724;SDS011;42608;52.776;6.968;2023-10-19T17:12:44;33.95;;;25.35;;
56724;SDS011;42608;52.776;6.968;2023-10-19T17:15:10;29.88;;;23.67;;
56724;SDS011;42608;52.776;6.968;2023-10-19T17:17:39;30.05;;;23.45;;
56724;SDS011;42608;52.776;6.968;2023-10-19T17:20:07;28.17;;;23.05;;
56724;SDS011;42608;52.776;6.968;2023-10-19T17:22:34;28.98;;;23.08;;
56724;SDS011;42608;52.776;6.968;2023-10-19T17:25:00;29.02;;;23.05;;
56724;SDS011;42608;52.776;6.968;2023-10-19T17:27:25;32.20;;;24.00;;
56724;SDS011;42608;52.776;6.968;2023-10-19T17:29:51;27.60;;;21.83;;
56724;SDS011;42608;52.776;6.968;2023-10-19T17:32:17;29.13;;;23.23;;
56724;SDS011;42608;52.776;6.968;2023-10-19T17:34:42;29.95;;;22.75;;
56724;SDS011;42608;52.776;6.968;2023-10-19T17:37:09;30.95;;;23.60;;
56724;SDS011;42608;52.776;6.968;2023-10-19T17:39:35;27.80;;;22.48;;
56724;SDS011;42608;52.776;6.968;2023-10-19T17:42:01;33.85;;;23.90;;
56724;SDS011;42608;52.776;6.968;2023-10-19T17:44:27;30.05;;;22.30;;
56724;SDS011;42608;52.776;6.968;2023-10-19T17:46:55;27.33;;;22.17;;
56724;SDS011;42608;52.776;6.968;2023-10-19T17:49:21;33.70;;;24.13;;
56724;SDS011;42608;52.776;6.968;2023-10-19T17:51:47;33.42;;;24.40;;
56724;SDS011;42608;52.776;6.968;2023-10-19T17:54:13;33.78;;;24.38;;
56724;SDS011;42608;52.776;6.968;2023-10-19T17:56:39;30.95;;;23.33;;
56724;SDS011;42608;52.776;6.968;2023-10-19T17:59:04;33.53;;;24.38;;
56724;SDS011;42608;52.776;6.968;2023-10-19T18:01:34;30.13;;;22.75;;
56724;SDS011;42608;52.776;6.968;2023-10-19T18:04:01;30.02;;;22.80;;
56724;SDS011;42608;52.776;6.968;2023-10-19T18:06:28;29.95;;;23.30;;
56724;SDS011;42608;52.776;6.968;2023-10-19T18:08:54;35.05;;;25.58;;
56724;SDS011;42608;52.776;6.968;2023-10-19T18:11:21;31.30;;;23.27;;
56724;SDS011;42608;52.776;6.968;2023-10-19T18:13:47;32.60;;;24.92;;
56724;SDS011;42608;52.776;6.968;2023-10-19T18:16:12;35.55;;;23.08;;
56724;SDS011;42608;52.776;6.968;2023-10-19T18:18:38;29.40;;;22.80;;
56724;SDS011;42608;52.776;6.968;2023-10-19T18:21:11;33.75;;;25.38;;
56724;SDS011;42608;52.776;6.968;2023-10-19T18:26:05;34.58;;;23.23;;
56724;SDS011;42608;52.776;6.968;2023-10-19T18:28:31;30.05;;;23.05;;
56724;SDS011;42608;52.776;6.968;2023-10-19T18:30:57;33.53;;;23.63;;
56724;SDS011;42608;52.776;6.968;2023-10-19T18:33:24;30.55;;;23.55;;
56724;SDS011;42608;52.776;6.968;2023-10-19T18:36:00;34.05;;;23.20;;
56724;SDS011;42608;52.776;6.968;2023-10-19T18:38:27;27.40;;;21.42;;
56724;SDS011;42608;52.776;6.968;2023-10-19T18:40:57;26.45;;;21.55;;
56724;SDS011;42608;52.776;6.968;2023-10-19T18:43:27;28.58;;;22.17;;
56724;SDS011;42608;52.776;6.968;2023-10-19T18:45:57;26.55;;;20.73;;
56724;SDS011;42608;52.776;6.968;2023-10-19T18:48:24;29.25;;;21.35;;
56724;SDS011;42608;52.776;6.968;2023-10-19T18:51:26;26.92;;;20.60;;
56724;SDS011;42608;52.776;6.968;2023-10-19T18:53:44;30.00;;;21.52;;
56724;SDS011;42608;52.776;6.968;2023-10-19T18:56:10;25.90;;;20.00;;
56724;SDS011;42608;52.776;6.968;2023-10-19T18:58:35;23.83;;;19.92;;
56724;SDS011;42608;52.776;6.968;2023-10-19T19:01:01;23.58;;;19.33;;
56724;SDS011;42608;52.776;6.968;2023-10-19T19:03:29;24.48;;;19.00;;
56724;SDS011;42608;52.776;6.968;2023-10-19T19:05:58;27.20;;;18.33;;
56724;SDS011;42608;52.776;6.968;2023-10-19T19:08:25;27.95;;;18.80;;
56724;SDS011;42608;52.776;6.968;2023-10-19T19:10:55;28.85;;;20.58;;
56724;SDS011;42608;52.776;6.968;2023-10-19T19:13:22;25.00;;;19.75;;
56724;SDS011;42608;52.776;6.968;2023-10-19T19:15:51;26.25;;;20.15;;
56724;SDS011;42608;52.776;6.968;2023-10-19T19:18:18;23.58;;;19.05;;
56724;SDS011;42608;52.776;6.968;2023-10-19T19:20:44;23.85;;;19.05;;
56724;SDS011;42608;52.776;6.968;2023-10-19T19:23:10;21.52;;;18.67;;
56724;SDS011;42608;52.776;6.968;2023-10-19T19:25:37;25.25;;;18.70;;
56724;SDS011;42608;52.776;6.968;2023-10-19T19:28:06;23.10;;;17.67;;
56724;SDS011;42608;52.776;6.968;2023-10-19T19:30:35;24.27;;;17.80;;
56724;SDS011;42608;52.776;6.968;2023-10-19T19:33:02;21.88;;;17.17;;
56724;SDS011;42608;52.776;6.968;2023-10-19T19:35:28;22.92;;;17.48;;
56724;SDS011;42608;52.776;6.968;2023-10-19T19:37:54;23.00;;;17.88;;
56724;SDS011;42608;52.776;6.968;2023-10-19T19:40:21;24.25;;;18.10;;
56724;SDS011;42608;52.776;6.968;2023-10-19T19:42:50;22.55;;;17.25;;
56724;SDS011;42608;52.776;6.968;2023-10-19T19:45:18;21.80;;;17.52;;
56724;SDS011;42608;52.776;6.968;2023-10-19T19:47:46;25.88;;;18.98;;
56724;SDS011;42608;52.776;6.968;2023-10-19T19:50:12;21.88;;;17.02;;
56724;SDS011;42608;52.776;6.968;2023-10-19T19:52:39;23.27;;;18.00;;
56724;SDS011;42608;52.776;6.968;2023-10-19T19:55:07;29.08;;;18.98;;
56724;SDS011;42608;52.776;6.968;2023-10-19T19:57:34;27.90;;;19.60;;
56724;SDS011;42608;52.776;6.968;2023-10-19T20:00:01;24.58;;;17.95;;
56724;SDS011;42608;52.776;6.968;2023-10-19T20:02:41;25.95;;;18.83;;
56724;SDS011;42608;52.776;6.968;2023-10-19T20:05:09;26.25;;;20.02;;
56724;SDS011;42608;52.776;6.968;2023-10-19T20:07:36;23.90;;;19.35;;
56724;SDS011;42608;52.776;6.968;2023-10-19T20:10:09;25.45;;;20.08;;
56724;SDS011;42608;52.776;6.968;2023-10-19T20:12:36;26.27;;;19.13;;
56724;SDS011;42608;52.776;6.968;2023-10-19T20:15:03;25.27;;;17.70;;
56724;SDS011;42608;52.776;6.968;2023-10-19T20:17:36;25.52;;;19.67;;
56724;SDS011;42608;52.776;6.968;2023-10-19T20:20:05;21.30;;;18.02;;
56724;SDS011;42608;52.776;6.968;2023-10-19T20:22:39;25.63;;;18.77;;
56724;SDS011;42608;52.776;6.968;2023-10-19T20:25:06;25.52;;;18.52;;
56724;SDS011;42608;52.776;6.968;2023-10-19T20:27:39;25.00;;;18.25;;
56724;SDS011;42608;52.776;6.968;2023-10-19T20:30:06;23.23;;;18.83;;
56724;SDS011;42608;52.776;6.968;2023-10-19T20:32:32;27.73;;;20.30;;
56724;SDS011;42608;52.776;6.968;2023-10-19T20:34:58;24.15;;;19.35;;
56724;SDS011;42608;52.776;6.968;2023-10-19T20:37:24;25.70;;;19.63;;
56724;SDS011;42608;52.776;6.968;2023-10-19T20:39:49;23.70;;;20.13;;
56724;SDS011;42608;52.776;6.968;2023-10-19T20:42:15;25.88;;;19.75;;
56724;SDS011;42608;52.776;6.968;2023-10-19T20:44:41;25.38;;;19.95;;
56724;SDS011;42608;52.776;6.968;2023-10-19T20:47:07;27.77;;;20.67;;
56724;SDS011;42608;52.776;6.968;2023-10-19T20:49:36;24.00;;;18.90;;
56724;SDS011;42608;52.776;6.968;2023-10-19T20:52:05;28.20;;;19.65;;
56724;SDS011;42608;52.776;6.968;2023-10-19T20:54:34;28.52;;;20.80;;
56724;SDS011;42608;52.776;6.968;2023-10-19T20:57:00;25.00;;;19.67;;
56724;SDS011;42608;52.776;6.968;2023-10-19T20:59:29;26.42;;;19.13;;
56724;SDS011;42608;52.776;6.968;2023-10-19T21:02:00;30.88;;;21.00;;
56724;SDS011;42608;52.776;6.968;2023-10-19T21:04:27;25.98;;;19.90;;
56724;SDS011;42608;52.776;6.968;2023-10-19T21:06:53;28.98;;;20.55;;
56724;SDS011;42608;52.776;6.968;2023-10-19T21:09:19;27.05;;;19.50;;
56724;SDS011;42608;52.776;6.968;2023-10-19T21:11:45;27.58;;;21.02;;
56724;SDS011;42608;52.776;6.968;2023-10-19T21:14:11;26.92;;;20.17;;
56724;SDS011;42608;52.776;6.968;2023-10-19T21:16:36;28.17;;;20.52;;
56724;SDS011;42608;52.776;6.968;2023-10-19T21:19:02;28.55;;;21.27;;
56724;SDS011;42608;52.776;6.968;2023-10-19T21:21:31;25.38;;;19.88;;
56724;SDS011;42608;52.776;6.968;2023-10-19T21:23:58;29.80;;;21.13;;
56724;SDS011;42608;52.776;6.968;2023-10-19T21:26:26;31.65;;;22.83;;
56724;SDS011;42608;52.776;6.968;2023-10-19T21:28:54;29.55;;;21.90;;
56724;SDS011;42608;52.776;6.968;2023-10-19T21:31:20;28.35;;;21.38;;
56724;SDS011;42608;52.776;6.968;2023-10-19T21:33:46;28.50;;;23.08;;
56724;SDS011;42608;52.776;6.968;2023-10-19T21:36:12;31.25;;;23.33;;
56724;SDS011;42608;52.776;6.968;2023-10-19T21:38:38;31.55;;;23.13;;
56724;SDS011;42608;52.776;6.968;2023-10-19T21:41:07;36.10;;;25.45;;
56724;SDS011;42608;52.776;6.968;2023-10-19T21:43:32;36.22;;;26.23;;
56724;SDS011;42608;52.776;6.968;2023-10-19T21:46:01;35.47;;;25.73;;
56724;SDS011;42608;52.776;6.968;2023-10-19T21:48:28;37.65;;;27.02;;
56724;SDS011;42608;52.776;6.968;2023-10-19T21:50:57;36.63;;;27.00;;
56724;SDS011;42608;52.776;6.968;2023-10-19T21:53:24;43.35;;;26.92;;
56724;SDS011;42608;52.776;6.968;2023-10-19T21:55:53;44.65;;;30.10;;
56724;SDS011;42608;52.776;6.968;2023-10-19T21:58:20;41.95;;;29.75;;
56724;SDS011;42608;52.776;6.968;2023-10-19T22:00:47;46.17;;;30.80;;
56724;SDS011;42608;52.776;6.968;2023-10-19T22:03:25;45.15;;;28.70;;
56724;SDS011;42608;52.776;6.968;2023-10-19T22:05:51;46.17;;;30.08;;
56724;SDS011;42608;52.776;6.968;2023-10-19T22:08:18;44.28;;;29.38;;
56724;SDS011;42608;52.776;6.968;2023-10-19T22:10:44;41.53;;;28.38;;
56724;SDS011;42608;52.776;6.968;2023-10-19T22:13:10;45.58;;;29.40;;
56724;SDS011;42608;52.776;6.968;2023-10-19T22:15:36;46.65;;;30.20;;
56724;SDS011;42608;52.776;6.968;2023-10-19T22:18:02;44.22;;;30.48;;
56724;SDS011;42608;52.776;6.968;2023-10-19T22:20:29;51.22;;;32.63;;
56724;SDS011;42608;52.776;6.968;2023-10-19T22:22:55;44.30;;;29.45;;
56724;SDS011;42608;52.776;6.968;2023-10-19T22:25:21;53.47;;;32.10;;
56724;SDS011;42608;52.776;6.968;2023-10-19T22:27:48;48.65;;;32.08;;
56724;SDS011;42608;52.776;6.968;2023-10-19T22:30:17;46.22;;;30.65;;
56724;SDS011;42608;52.776;6.968;2023-10-19T22:32:44;49.03;;;30.33;;
56724;SDS011;42608;52.776;6.968;2023-10-19T22:35:10;48.30;;;30.90;;
56724;SDS011;42608;52.776;6.968;2023-10-19T22:37:37;46.58;;;30.88;;
56724;SDS011;42608;52.776;6.968;2023-10-19T22:40:02;48.55;;;31.35;;
56724;SDS011;42608;52.776;6.968;2023-10-19T22:42:29;47.08;;;30.75;;
56724;SDS011;42608;52.776;6.968;2023-10-19T22:44:55;48.83;;;30.52;;
56724;SDS011;42608;52.776;6.968;2023-10-19T22:47:21;48.92;;;30.60;;
